sensor_id;sensor_type;location;lat;lon;timestamp;P1;durP1;ratioP1;P2;durP2;ratioP2
57225;SDS011;43082;43.568;22.256;2024-02-21T00:00:44;21.77;;;17.10;;
57225;SDS011;43082;43.568;22.256;2024-02-21T00:03:10;23.08;;;17.08;;
57225;SDS011;43082;43.568;22.256;2024-02-21T00:05:35;18.75;;;14.80;;
57225;SDS011;43082;43.568;22.256;2024-02-21T00:08:02;18.27;;;14.63;;
57225;SDS011;43082;43.568;22.256;2024-02-21T00:10:28;21.40;;;16.33;;
57225;SDS011;43082;43.568;22.256;2024-02-21T00:12:53;26.05;;;19.95;;
57225;SDS011;43082;43.568;22.256;2024-02-21T00:15:19;29.05;;;21.65;;
57225;SDS011;43082;43.568;22.256;2024-02-21T00:17:44;22.10;;;16.88;;
57225;SDS011;43082;43.568;22.256;2024-02-21T00:20:10;23.00;;;18.38;;
57225;SDS011;43082;43.568;22.256;2024-02-21T00:22:36;39.47;;;29.90;;
57225;SDS011;43082;43.568;22.256;2024-02-21T00:25:01;30.75;;;22.98;;
57225;SDS011;43082;43.568;22.256;2024-02-21T00:27:27;26.77;;;20.35;;
57225;SDS011;43082;43.568;22.256;2024-02-21T00:29:53;31.13;;;22.77;;
57225;SDS011;43082;43.568;22.256;2024-02-21T00:32:18;22.88;;;17.63;;
57225;SDS011;43082;43.568;22.256;2024-02-21T00:34:43;27.60;;;20.80;;
57225;SDS011;43082;43.568;22.256;2024-02-21T00:37:09;20.63;;;15.60;;
57225;SDS011;43082;43.568;22.256;2024-02-21T00:39:34;18.80;;;13.82;;
57225;SDS011;43082;43.568;22.256;2024-02-21T00:42:00;21.17;;;16.90;;
57225;SDS011;43082;43.568;22.256;2024-02-21T00:44:26;21.08;;;16.30;;
57225;SDS011;43082;43.568;22.256;2024-02-21T00:46:51;20.20;;;16.02;;
57225;SDS011;43082;43.568;22.256;2024-02-21T00:49:17;18.55;;;14.80;;
57225;SDS011;43082;43.568;22.256;2024-02-21T00:51:43;21.65;;;16.77;;
57225;SDS011;43082;43.568;22.256;2024-02-21T00:54:08;21.30;;;16.60;;
57225;SDS011;43082;43.568;22.256;2024-02-21T00:56:34;19.92;;;15.18;;
57225;SDS011;43082;43.568;22.256;2024-02-21T00:58:59;20.75;;;15.85;;
57225;SDS011;43082;43.568;22.256;2024-02-21T01:01:25;18.70;;;14.73;;
57225;SDS011;43082;43.568;22.256;2024-02-21T01:03:50;18.52;;;14.52;;
57225;SDS011;43082;43.568;22.256;2024-02-21T01:06:18;17.73;;;14.25;;
57225;SDS011;43082;43.568;22.256;2024-02-21T01:08:47;20.08;;;15.15;;
57225;SDS011;43082;43.568;22.256;2024-02-21T01:11:13;19.55;;;15.43;;
57225;SDS011;43082;43.568;22.256;2024-02-21T01:13:39;16.67;;;12.98;;
57225;SDS011;43082;43.568;22.256;2024-02-21T01:16:05;18.20;;;12.82;;
57225;SDS011;43082;43.568;22.256;2024-02-21T01:18:32;19.90;;;15.15;;
57225;SDS011;43082;43.568;22.256;2024-02-21T01:20:58;18.08;;;13.95;;
57225;SDS011;43082;43.568;22.256;2024-02-21T01:23:24;21.55;;;16.40;;
57225;SDS011;43082;43.568;22.256;2024-02-21T01:25:49;22.58;;;16.83;;
57225;SDS011;43082;43.568;22.256;2024-02-21T01:28:15;22.88;;;16.73;;
57225;SDS011;43082;43.568;22.256;2024-02-21T01:30:40;22.35;;;17.00;;
57225;SDS011;43082;43.568;22.256;2024-02-21T01:33:06;24.58;;;18.05;;
57225;SDS011;43082;43.568;22.256;2024-02-21T01:35:31;27.92;;;20.10;;
57225;SDS011;43082;43.568;22.256;2024-02-21T01:37:57;24.23;;;19.17;;
57225;SDS011;43082;43.568;22.256;2024-02-21T01:40:22;25.50;;;18.45;;
57225;SDS011;43082;43.568;22.256;2024-02-21T01:42:47;40.00;;;28.70;;
57225;SDS011;43082;43.568;22.256;2024-02-21T01:45:13;28.90;;;20.88;;
57225;SDS011;43082;43.568;22.256;2024-02-21T01:47:39;25.65;;;18.85;;
57225;SDS011;43082;43.568;22.256;2024-02-21T01:50:05;20.25;;;16.15;;
57225;SDS011;43082;43.568;22.256;2024-02-21T01:52:31;20.98;;;15.23;;
57225;SDS011;43082;43.568;22.256;2024-02-21T01:54:58;18.98;;;15.05;;
57225;SDS011;43082;43.568;22.256;2024-02-21T01:57:24;26.10;;;18.38;;
57225;SDS011;43082;43.568;22.256;2024-02-21T01:59:49;23.55;;;17.23;;
57225;SDS011;43082;43.568;22.256;2024-02-21T02:02:15;20.38;;;15.10;;
57225;SDS011;43082;43.568;22.256;2024-02-21T02:04:41;28.77;;;21.40;;
57225;SDS011;43082;43.568;22.256;2024-02-21T02:07:07;31.73;;;22.40;;
57225;SDS011;43082;43.568;22.256;2024-02-21T02:09:33;24.77;;;19.65;;
57225;SDS011;43082;43.568;22.256;2024-02-21T02:11:59;30.65;;;20.15;;
57225;SDS011;43082;43.568;22.256;2024-02-21T02:14:25;23.77;;;16.15;;
57225;SDS011;43082;43.568;22.256;2024-02-21T02:16:50;24.05;;;17.13;;
57225;SDS011;43082;43.568;22.256;2024-02-21T02:19:16;22.08;;;16.35;;
57225;SDS011;43082;43.568;22.256;2024-02-21T02:21:42;17.60;;;14.00;;
57225;SDS011;43082;43.568;22.256;2024-02-21T02:24:18;19.90;;;15.35;;
57225;SDS011;43082;43.568;22.256;2024-02-21T02:26:45;22.45;;;16.27;;
57225;SDS011;43082;43.568;22.256;2024-02-21T02:29:10;22.15;;;15.57;;
57225;SDS011;43082;43.568;22.256;2024-02-21T02:31:36;19.52;;;14.05;;
57225;SDS011;43082;43.568;22.256;2024-02-21T02:34:03;18.55;;;13.50;;
57225;SDS011;43082;43.568;22.256;2024-02-21T02:36:29;19.17;;;14.38;;
57225;SDS011;43082;43.568;22.256;2024-02-21T02:38:56;20.23;;;14.88;;
57225;SDS011;43082;43.568;22.256;2024-02-21T02:41:22;21.83;;;15.93;;
57225;SDS011;43082;43.568;22.256;2024-02-21T02:43:47;20.80;;;13.98;;
57225;SDS011;43082;43.568;22.256;2024-02-21T02:46:13;17.83;;;13.50;;
57225;SDS011;43082;43.568;22.256;2024-02-21T02:48:38;18.83;;;14.63;;
57225;SDS011;43082;43.568;22.256;2024-02-21T02:51:04;28.42;;;22.88;;
57225;SDS011;43082;43.568;22.256;2024-02-21T02:53:29;17.05;;;13.50;;
57225;SDS011;43082;43.568;22.256;2024-02-21T02:55:54;16.48;;;12.68;;
57225;SDS011;43082;43.568;22.256;2024-02-21T02:58:20;22.35;;;17.67;;
57225;SDS011;43082;43.568;22.256;2024-02-21T03:00:46;38.80;;;34.60;;
57225;SDS011;43082;43.568;22.256;2024-02-21T03:03:11;18.92;;;15.27;;
57225;SDS011;43082;43.568;22.256;2024-02-21T03:05:36;17.25;;;13.75;;
57225;SDS011;43082;43.568;22.256;2024-02-21T03:08:02;18.42;;;14.07;;
57225;SDS011;43082;43.568;22.256;2024-02-21T03:10:32;15.98;;;12.88;;
57225;SDS011;43082;43.568;22.256;2024-02-21T03:13:00;17.05;;;12.75;;
57225;SDS011;43082;43.568;22.256;2024-02-21T03:15:25;15.07;;;12.23;;
57225;SDS011;43082;43.568;22.256;2024-02-21T03:17:51;18.55;;;13.95;;
57225;SDS011;43082;43.568;22.256;2024-02-21T03:20:16;17.33;;;14.15;;
57225;SDS011;43082;43.568;22.256;2024-02-21T03:22:42;17.00;;;13.38;;
57225;SDS011;43082;43.568;22.256;2024-02-21T03:25:10;16.98;;;14.05;;
57225;SDS011;43082;43.568;22.256;2024-02-21T03:27:37;18.10;;;14.00;;
57225;SDS011;43082;43.568;22.256;2024-02-21T03:30:03;18.58;;;13.50;;
57225;SDS011;43082;43.568;22.256;2024-02-21T03:32:29;20.25;;;16.02;;
57225;SDS011;43082;43.568;22.256;2024-02-21T03:34:55;18.85;;;15.50;;
57225;SDS011;43082;43.568;22.256;2024-02-21T03:37:20;20.23;;;15.73;;
57225;SDS011;43082;43.568;22.256;2024-02-21T03:39:45;21.05;;;16.45;;
57225;SDS011;43082;43.568;22.256;2024-02-21T03:42:11;20.85;;;15.75;;
57225;SDS011;43082;43.568;22.256;2024-02-21T03:44:36;18.88;;;14.20;;
57225;SDS011;43082;43.568;22.256;2024-02-21T03:47:02;16.33;;;12.80;;
57225;SDS011;43082;43.568;22.256;2024-02-21T03:49:27;16.58;;;13.38;;
57225;SDS011;43082;43.568;22.256;2024-02-21T03:51:53;16.90;;;13.38;;
57225;SDS011;43082;43.568;22.256;2024-02-21T03:54:19;18.27;;;13.52;;
57225;SDS011;43082;43.568;22.256;2024-02-21T03:56:44;18.15;;;14.68;;
57225;SDS011;43082;43.568;22.256;2024-02-21T03:59:12;23.88;;;18.27;;
57225;SDS011;43082;43.568;22.256;2024-02-21T04:01:38;24.40;;;18.55;;
57225;SDS011;43082;43.568;22.256;2024-02-21T04:04:03;23.65;;;17.52;;
57225;SDS011;43082;43.568;22.256;2024-02-21T04:06:29;23.33;;;17.75;;
57225;SDS011;43082;43.568;22.256;2024-02-21T04:08:54;26.13;;;19.80;;
57225;SDS011;43082;43.568;22.256;2024-02-21T04:11:20;22.42;;;17.83;;
57225;SDS011;43082;43.568;22.256;2024-02-21T04:13:45;24.30;;;19.63;;
57225;SDS011;43082;43.568;22.256;2024-02-21T04:16:13;25.88;;;19.20;;
57225;SDS011;43082;43.568;22.256;2024-02-21T04:18:39;25.75;;;17.95;;
57225;SDS011;43082;43.568;22.256;2024-02-21T04:21:05;24.83;;;18.67;;
57225;SDS011;43082;43.568;22.256;2024-02-21T04:23:30;16.15;;;12.18;;
57225;SDS011;43082;43.568;22.256;2024-02-21T04:25:56;18.27;;;13.75;;
57225;SDS011;43082;43.568;22.256;2024-02-21T04:28:21;17.35;;;13.45;;
57225;SDS011;43082;43.568;22.256;2024-02-21T04:30:46;16.33;;;13.25;;
57225;SDS011;43082;43.568;22.256;2024-02-21T04:33:12;18.88;;;13.43;;
57225;SDS011;43082;43.568;22.256;2024-02-21T04:35:37;16.52;;;11.82;;
57225;SDS011;43082;43.568;22.256;2024-02-21T04:38:04;17.95;;;14.10;;
57225;SDS011;43082;43.568;22.256;2024-02-21T04:40:30;44.17;;;30.63;;
57225;SDS011;43082;43.568;22.256;2024-02-21T04:42:56;44.53;;;30.88;;
57225;SDS011;43082;43.568;22.256;2024-02-21T04:45:22;48.28;;;32.20;;
57225;SDS011;43082;43.568;22.256;2024-02-21T04:47:47;23.60;;;17.05;;
57225;SDS011;43082;43.568;22.256;2024-02-21T04:50:13;22.92;;;17.85;;
57225;SDS011;43082;43.568;22.256;2024-02-21T04:52:38;19.77;;;15.55;;
57225;SDS011;43082;43.568;22.256;2024-02-21T04:55:04;18.45;;;13.60;;
57225;SDS011;43082;43.568;22.256;2024-02-21T04:57:30;16.50;;;12.80;;
57225;SDS011;43082;43.568;22.256;2024-02-21T04:59:55;18.63;;;13.20;;
57225;SDS011;43082;43.568;22.256;2024-02-21T05:02:20;17.42;;;13.65;;
57225;SDS011;43082;43.568;22.256;2024-02-21T05:04:49;16.95;;;12.70;;
57225;SDS011;43082;43.568;22.256;2024-02-21T05:07:15;20.10;;;14.52;;
57225;SDS011;43082;43.568;22.256;2024-02-21T05:09:42;33.17;;;26.05;;
57225;SDS011;43082;43.568;22.256;2024-02-21T05:12:07;20.77;;;15.43;;
57225;SDS011;43082;43.568;22.256;2024-02-21T05:14:33;17.30;;;13.52;;
57225;SDS011;43082;43.568;22.256;2024-02-21T05:16:59;21.10;;;16.30;;
57225;SDS011;43082;43.568;22.256;2024-02-21T05:19:24;21.73;;;17.40;;
57225;SDS011;43082;43.568;22.256;2024-02-21T05:21:49;21.13;;;15.57;;
57225;SDS011;43082;43.568;22.256;2024-02-21T05:24:15;21.63;;;16.10;;
57225;SDS011;43082;43.568;22.256;2024-02-21T05:26:40;23.85;;;19.48;;
57225;SDS011;43082;43.568;22.256;2024-02-21T05:29:06;24.30;;;19.92;;
57225;SDS011;43082;43.568;22.256;2024-02-21T05:34:16;33.28;;;26.17;;
57225;SDS011;43082;43.568;22.256;2024-02-21T05:36:41;60.10;;;45.72;;
57225;SDS011;43082;43.568;22.256;2024-02-21T05:39:07;61.25;;;44.95;;
57225;SDS011;43082;43.568;22.256;2024-02-21T05:41:32;31.50;;;24.92;;
57225;SDS011;43082;43.568;22.256;2024-02-21T05:43:58;65.68;;;44.17;;
57225;SDS011;43082;43.568;22.256;2024-02-21T05:46:23;41.80;;;30.38;;
57225;SDS011;43082;43.568;22.256;2024-02-21T05:48:49;43.28;;;31.67;;
57225;SDS011;43082;43.568;22.256;2024-02-21T05:51:15;30.88;;;22.83;;
57225;SDS011;43082;43.568;22.256;2024-02-21T05:53:40;41.53;;;31.55;;
57225;SDS011;43082;43.568;22.256;2024-02-21T05:56:12;57.33;;;45.05;;
57225;SDS011;43082;43.568;22.256;2024-02-21T05:58:38;52.22;;;41.00;;
57225;SDS011;43082;43.568;22.256;2024-02-21T06:01:04;61.65;;;47.88;;
57225;SDS011;43082;43.568;22.256;2024-02-21T06:03:31;59.45;;;46.60;;
57225;SDS011;43082;43.568;22.256;2024-02-21T06:05:57;59.55;;;48.22;;
57225;SDS011;43082;43.568;22.256;2024-02-21T06:08:24;55.30;;;43.40;;
57225;SDS011;43082;43.568;22.256;2024-02-21T06:10:49;60.35;;;45.83;;
57225;SDS011;43082;43.568;22.256;2024-02-21T06:13:19;79.10;;;53.10;;
57225;SDS011;43082;43.568;22.256;2024-02-21T06:15:46;106.25;;;71.25;;
57225;SDS011;43082;43.568;22.256;2024-02-21T06:18:12;65.82;;;45.47;;
57225;SDS011;43082;43.568;22.256;2024-02-21T06:20:37;75.80;;;53.05;;
57225;SDS011;43082;43.568;22.256;2024-02-21T06:23:05;92.65;;;62.75;;
57225;SDS011;43082;43.568;22.256;2024-02-21T06:25:31;76.32;;;52.70;;
57225;SDS011;43082;43.568;22.256;2024-02-21T06:27:56;75.28;;;50.42;;
57225;SDS011;43082;43.568;22.256;2024-02-21T06:30:22;72.40;;;51.25;;
57225;SDS011;43082;43.568;22.256;2024-02-21T06:32:47;81.22;;;55.45;;
57225;SDS011;43082;43.568;22.256;2024-02-21T06:35:12;96.95;;;71.68;;
57225;SDS011;43082;43.568;22.256;2024-02-21T06:37:38;104.00;;;74.65;;
57225;SDS011;43082;43.568;22.256;2024-02-21T06:40:04;83.63;;;61.88;;
57225;SDS011;43082;43.568;22.256;2024-02-21T06:42:30;87.35;;;66.75;;
57225;SDS011;43082;43.568;22.256;2024-02-21T06:44:56;64.80;;;50.22;;
57225;SDS011;43082;43.568;22.256;2024-02-21T06:47:21;86.05;;;67.93;;
57225;SDS011;43082;43.568;22.256;2024-02-21T06:49:50;66.63;;;50.65;;
57225;SDS011;43082;43.568;22.256;2024-02-21T06:52:19;95.28;;;73.10;;
57225;SDS011;43082;43.568;22.256;2024-02-21T06:54:48;98.30;;;72.47;;
57225;SDS011;43082;43.568;22.256;2024-02-21T06:57:14;86.75;;;67.68;;
57225;SDS011;43082;43.568;22.256;2024-02-21T06:59:40;84.97;;;66.22;;
57225;SDS011;43082;43.568;22.256;2024-02-21T07:02:07;114.00;;;84.97;;
57225;SDS011;43082;43.568;22.256;2024-02-21T07:04:32;59.70;;;46.33;;
57225;SDS011;43082;43.568;22.256;2024-02-21T07:06:58;68.13;;;51.63;;
57225;SDS011;43082;43.568;22.256;2024-02-21T07:09:23;36.92;;;28.70;;
57225;SDS011;43082;43.568;22.256;2024-02-21T07:11:49;41.20;;;33.28;;
57225;SDS011;43082;43.568;22.256;2024-02-21T07:14:14;42.08;;;31.13;;
57225;SDS011;43082;43.568;22.256;2024-02-21T07:16:40;42.20;;;30.80;;
57225;SDS011;43082;43.568;22.256;2024-02-21T07:19:06;33.40;;;25.77;;
57225;SDS011;43082;43.568;22.256;2024-02-21T07:21:31;42.33;;;33.75;;
57225;SDS011;43082;43.568;22.256;2024-02-21T07:23:57;41.17;;;30.13;;
57225;SDS011;43082;43.568;22.256;2024-02-21T07:26:22;51.60;;;38.50;;
57225;SDS011;43082;43.568;22.256;2024-02-21T07:28:48;39.40;;;30.50;;
57225;SDS011;43082;43.568;22.256;2024-02-21T07:31:13;35.33;;;27.00;;
57225;SDS011;43082;43.568;22.256;2024-02-21T07:33:39;35.53;;;27.50;;
57225;SDS011;43082;43.568;22.256;2024-02-21T07:36:07;58.22;;;42.80;;
57225;SDS011;43082;43.568;22.256;2024-02-21T07:38:35;45.00;;;35.08;;
57225;SDS011;43082;43.568;22.256;2024-02-21T07:41:00;21.60;;;17.13;;
57225;SDS011;43082;43.568;22.256;2024-02-21T07:43:25;22.73;;;16.15;;
57225;SDS011;43082;43.568;22.256;2024-02-21T07:45:51;18.60;;;14.07;;
57225;SDS011;43082;43.568;22.256;2024-02-21T07:48:18;16.50;;;13.00;;
57225;SDS011;43082;43.568;22.256;2024-02-21T07:50:44;16.92;;;12.10;;
57225;SDS011;43082;43.568;22.256;2024-02-21T07:53:09;22.98;;;14.15;;
57225;SDS011;43082;43.568;22.256;2024-02-21T07:55:35;29.63;;;20.85;;
57225;SDS011;43082;43.568;22.256;2024-02-21T07:58:00;30.00;;;22.25;;
57225;SDS011;43082;43.568;22.256;2024-02-21T08:00:25;22.20;;;17.55;;
57225;SDS011;43082;43.568;22.256;2024-02-21T08:02:51;20.60;;;14.80;;
57225;SDS011;43082;43.568;22.256;2024-02-21T08:05:16;17.63;;;12.18;;
57225;SDS011;43082;43.568;22.256;2024-02-21T08:07:42;18.42;;;14.35;;
57225;SDS011;43082;43.568;22.256;2024-02-21T08:10:07;24.98;;;16.60;;
57225;SDS011;43082;43.568;22.256;2024-02-21T08:12:33;18.23;;;12.80;;
57225;SDS011;43082;43.568;22.256;2024-02-21T08:14:59;24.88;;;15.55;;
57225;SDS011;43082;43.568;22.256;2024-02-21T08:17:25;17.63;;;13.45;;
57225;SDS011;43082;43.568;22.256;2024-02-21T08:19:50;18.42;;;13.57;;
57225;SDS011;43082;43.568;22.256;2024-02-21T08:22:16;20.05;;;15.00;;
57225;SDS011;43082;43.568;22.256;2024-02-21T08:24:41;21.52;;;14.95;;
57225;SDS011;43082;43.568;22.256;2024-02-21T08:27:07;19.85;;;14.73;;
57225;SDS011;43082;43.568;22.256;2024-02-21T08:29:32;25.55;;;18.00;;
57225;SDS011;43082;43.568;22.256;2024-02-21T08:31:58;21.80;;;17.02;;
57225;SDS011;43082;43.568;22.256;2024-02-21T08:34:23;23.88;;;17.92;;
57225;SDS011;43082;43.568;22.256;2024-02-21T08:36:49;19.20;;;15.45;;
57225;SDS011;43082;43.568;22.256;2024-02-21T08:39:14;29.67;;;23.20;;
57225;SDS011;43082;43.568;22.256;2024-02-21T08:41:41;24.55;;;17.67;;
57225;SDS011;43082;43.568;22.256;2024-02-21T08:44:07;19.70;;;14.20;;
57225;SDS011;43082;43.568;22.256;2024-02-21T08:46:33;26.70;;;19.42;;
57225;SDS011;43082;43.568;22.256;2024-02-21T08:48:58;16.00;;;11.80;;
57225;SDS011;43082;43.568;22.256;2024-02-21T08:51:23;18.90;;;14.05;;
57225;SDS011;43082;43.568;22.256;2024-02-21T08:53:49;20.45;;;14.98;;
57225;SDS011;43082;43.568;22.256;2024-02-21T08:56:15;19.65;;;13.55;;
57225;SDS011;43082;43.568;22.256;2024-02-21T08:58:40;23.25;;;18.00;;
57225;SDS011;43082;43.568;22.256;2024-02-21T09:01:06;28.50;;;21.15;;
57225;SDS011;43082;43.568;22.256;2024-02-21T09:03:35;25.20;;;15.82;;
57225;SDS011;43082;43.568;22.256;2024-02-21T09:06:01;17.33;;;12.10;;
57225;SDS011;43082;43.568;22.256;2024-02-21T09:08:27;18.02;;;13.38;;
57225;SDS011;43082;43.568;22.256;2024-02-21T09:10:52;19.88;;;14.43;;
57225;SDS011;43082;43.568;22.256;2024-02-21T09:13:18;15.82;;;9.98;;
57225;SDS011;43082;43.568;22.256;2024-02-21T09:15:44;20.23;;;14.05;;
57225;SDS011;43082;43.568;22.256;2024-02-21T09:18:09;20.17;;;13.95;;
57225;SDS011;43082;43.568;22.256;2024-02-21T09:20:35;21.13;;;14.88;;
57225;SDS011;43082;43.568;22.256;2024-02-21T09:23:00;18.10;;;12.15;;
57225;SDS011;43082;43.568;22.256;2024-02-21T09:25:26;15.10;;;11.18;;
57225;SDS011;43082;43.568;22.256;2024-02-21T09:27:53;15.95;;;11.63;;
57225;SDS011;43082;43.568;22.256;2024-02-21T09:30:19;26.15;;;20.10;;
57225;SDS011;43082;43.568;22.256;2024-02-21T09:32:45;25.48;;;19.67;;
57225;SDS011;43082;43.568;22.256;2024-02-21T09:35:10;22.48;;;15.98;;
57225;SDS011;43082;43.568;22.256;2024-02-21T09:37:37;21.63;;;17.33;;
57225;SDS011;43082;43.568;22.256;2024-02-21T09:40:06;16.67;;;12.63;;
57225;SDS011;43082;43.568;22.256;2024-02-21T09:42:38;19.00;;;12.82;;
57225;SDS011;43082;43.568;22.256;2024-02-21T09:45:07;35.72;;;29.02;;
57225;SDS011;43082;43.568;22.256;2024-02-21T09:47:40;33.38;;;24.83;;
57225;SDS011;43082;43.568;22.256;2024-02-21T09:50:13;50.08;;;36.13;;
57225;SDS011;43082;43.568;22.256;2024-02-21T09:52:39;45.72;;;34.47;;
57225;SDS011;43082;43.568;22.256;2024-02-21T09:55:05;31.73;;;22.85;;
57225;SDS011;43082;43.568;22.256;2024-02-21T09:57:33;36.60;;;25.52;;
57225;SDS011;43082;43.568;22.256;2024-02-21T09:59:59;34.78;;;25.25;;
57225;SDS011;43082;43.568;22.256;2024-02-21T10:02:29;33.03;;;26.02;;
57225;SDS011;43082;43.568;22.256;2024-02-21T10:04:54;25.35;;;19.40;;
57225;SDS011;43082;43.568;22.256;2024-02-21T10:07:20;27.10;;;20.92;;
57225;SDS011;43082;43.568;22.256;2024-02-21T10:09:48;18.85;;;13.30;;
57225;SDS011;43082;43.568;22.256;2024-02-21T10:12:13;27.83;;;16.83;;
57225;SDS011;43082;43.568;22.256;2024-02-21T10:14:40;34.47;;;22.05;;
57225;SDS011;43082;43.568;22.256;2024-02-21T10:17:05;20.02;;;12.90;;
57225;SDS011;43082;43.568;22.256;2024-02-21T10:19:34;19.75;;;14.57;;
57225;SDS011;43082;43.568;22.256;2024-02-21T10:24:35;21.13;;;13.55;;
57225;SDS011;43082;43.568;22.256;2024-02-21T10:27:03;31.08;;;22.17;;
57225;SDS011;43082;43.568;22.256;2024-02-21T10:29:33;23.98;;;18.05;;
57225;SDS011;43082;43.568;22.256;2024-02-21T10:32:32;35.35;;;24.63;;
57225;SDS011;43082;43.568;22.256;2024-02-21T10:35:00;30.05;;;21.20;;
57225;SDS011;43082;43.568;22.256;2024-02-21T10:37:28;33.42;;;25.27;;
57225;SDS011;43082;43.568;22.256;2024-02-21T10:39:53;25.48;;;20.42;;
57225;SDS011;43082;43.568;22.256;2024-02-21T10:42:19;24.42;;;18.58;;
57225;SDS011;43082;43.568;22.256;2024-02-21T10:44:52;22.55;;;17.95;;
57225;SDS011;43082;43.568;22.256;2024-02-21T10:47:18;28.27;;;21.65;;
57225;SDS011;43082;43.568;22.256;2024-02-21T10:49:46;26.38;;;19.83;;
57225;SDS011;43082;43.568;22.256;2024-02-21T10:55:00;20.38;;;14.38;;
57225;SDS011;43082;43.568;22.256;2024-02-21T10:57:28;23.58;;;16.92;;
57225;SDS011;43082;43.568;22.256;2024-02-21T10:59:55;19.15;;;14.65;;
57225;SDS011;43082;43.568;22.256;2024-02-21T11:02:21;24.50;;;16.77;;
57225;SDS011;43082;43.568;22.256;2024-02-21T11:04:46;18.95;;;15.10;;
57225;SDS011;43082;43.568;22.256;2024-02-21T11:07:12;21.83;;;17.15;;
57225;SDS011;43082;43.568;22.256;2024-02-21T11:09:38;22.52;;;16.08;;
57225;SDS011;43082;43.568;22.256;2024-02-21T11:12:04;26.98;;;16.95;;
57225;SDS011;43082;43.568;22.256;2024-02-21T11:14:30;27.17;;;18.58;;
57225;SDS011;43082;43.568;22.256;2024-02-21T11:17:14;27.10;;;19.42;;
57225;SDS011;43082;43.568;22.256;2024-02-21T11:19:43;30.15;;;20.55;;
57225;SDS011;43082;43.568;22.256;2024-02-21T11:22:17;24.95;;;16.48;;
57225;SDS011;43082;43.568;22.256;2024-02-21T11:24:43;26.15;;;17.38;;
57225;SDS011;43082;43.568;22.256;2024-02-21T11:27:09;22.73;;;17.15;;
57225;SDS011;43082;43.568;22.256;2024-02-21T11:32:10;21.98;;;16.02;;
57225;SDS011;43082;43.568;22.256;2024-02-21T11:34:37;26.20;;;18.48;;
57225;SDS011;43082;43.568;22.256;2024-02-21T11:37:12;26.35;;;18.13;;
57225;SDS011;43082;43.568;22.256;2024-02-21T11:39:40;23.27;;;17.65;;
57225;SDS011;43082;43.568;22.256;2024-02-21T11:42:06;24.67;;;18.10;;
57225;SDS011;43082;43.568;22.256;2024-02-21T11:44:36;27.60;;;19.75;;
57225;SDS011;43082;43.568;22.256;2024-02-21T11:47:07;20.33;;;15.23;;
57225;SDS011;43082;43.568;22.256;2024-02-21T11:49:36;28.58;;;18.25;;
57225;SDS011;43082;43.568;22.256;2024-02-21T11:52:08;29.15;;;20.50;;
57225;SDS011;43082;43.568;22.256;2024-02-21T11:54:33;21.45;;;15.52;;
57225;SDS011;43082;43.568;22.256;2024-02-21T11:56:59;23.60;;;15.82;;
57225;SDS011;43082;43.568;22.256;2024-02-21T11:59:25;17.02;;;12.27;;
57225;SDS011;43082;43.568;22.256;2024-02-21T12:01:52;17.23;;;12.45;;
57225;SDS011;43082;43.568;22.256;2024-02-21T12:04:18;17.10;;;13.00;;
57225;SDS011;43082;43.568;22.256;2024-02-21T12:06:45;20.60;;;14.60;;
57225;SDS011;43082;43.568;22.256;2024-02-21T12:09:13;20.55;;;14.43;;
57225;SDS011;43082;43.568;22.256;2024-02-21T12:11:42;30.23;;;22.23;;
57225;SDS011;43082;43.568;22.256;2024-02-21T12:14:08;27.70;;;18.10;;
57225;SDS011;43082;43.568;22.256;2024-02-21T12:16:35;19.90;;;15.48;;
57225;SDS011;43082;43.568;22.256;2024-02-21T12:19:03;26.27;;;18.08;;
57225;SDS011;43082;43.568;22.256;2024-02-21T12:21:29;23.90;;;15.43;;
57225;SDS011;43082;43.568;22.256;2024-02-21T12:23:57;18.15;;;12.18;;
57225;SDS011;43082;43.568;22.256;2024-02-21T12:26:23;13.70;;;9.70;;
57225;SDS011;43082;43.568;22.256;2024-02-21T12:28:48;12.43;;;8.57;;
57225;SDS011;43082;43.568;22.256;2024-02-21T12:31:14;14.63;;;9.93;;
57225;SDS011;43082;43.568;22.256;2024-02-21T12:33:41;19.05;;;12.65;;
57225;SDS011;43082;43.568;22.256;2024-02-21T12:36:07;16.10;;;11.02;;
57225;SDS011;43082;43.568;22.256;2024-02-21T12:38:34;13.50;;;9.68;;
57225;SDS011;43082;43.568;22.256;2024-02-21T12:41:00;12.10;;;8.32;;
57225;SDS011;43082;43.568;22.256;2024-02-21T12:43:25;12.48;;;9.07;;
57225;SDS011;43082;43.568;22.256;2024-02-21T12:45:51;13.27;;;9.27;;
57225;SDS011;43082;43.568;22.256;2024-02-21T12:48:17;12.10;;;9.43;;
57225;SDS011;43082;43.568;22.256;2024-02-21T12:50:47;15.50;;;9.93;;
57225;SDS011;43082;43.568;22.256;2024-02-21T12:53:15;13.35;;;9.07;;
57225;SDS011;43082;43.568;22.256;2024-02-21T12:55:41;15.10;;;8.80;;
57225;SDS011;43082;43.568;22.256;2024-02-21T12:58:06;19.73;;;7.93;;
57225;SDS011;43082;43.568;22.256;2024-02-21T13:00:32;17.08;;;7.32;;
57225;SDS011;43082;43.568;22.256;2024-02-21T13:02:58;15.88;;;10.52;;
57225;SDS011;43082;43.568;22.256;2024-02-21T13:05:23;13.52;;;10.43;;
57225;SDS011;43082;43.568;22.256;2024-02-21T13:07:49;15.10;;;10.10;;
57225;SDS011;43082;43.568;22.256;2024-02-21T13:10:14;20.00;;;13.50;;
57225;SDS011;43082;43.568;22.256;2024-02-21T13:12:40;14.05;;;8.57;;
57225;SDS011;43082;43.568;22.256;2024-02-21T13:15:05;16.77;;;11.10;;
57225;SDS011;43082;43.568;22.256;2024-02-21T13:17:31;16.17;;;11.40;;
57225;SDS011;43082;43.568;22.256;2024-02-21T13:19:58;23.13;;;14.05;;
57225;SDS011;43082;43.568;22.256;2024-02-21T13:22:23;24.02;;;11.40;;
57225;SDS011;43082;43.568;22.256;2024-02-21T13:24:51;15.40;;;8.75;;
57225;SDS011;43082;43.568;22.256;2024-02-21T13:27:17;16.02;;;10.98;;
57225;SDS011;43082;43.568;22.256;2024-02-21T13:29:42;21.13;;;11.85;;
57225;SDS011;43082;43.568;22.256;2024-02-21T13:32:08;19.40;;;12.93;;
57225;SDS011;43082;43.568;22.256;2024-02-21T13:34:33;18.15;;;10.60;;
57225;SDS011;43082;43.568;22.256;2024-02-21T13:36:59;19.45;;;11.15;;
57225;SDS011;43082;43.568;22.256;2024-02-21T13:39:24;18.23;;;12.48;;
57225;SDS011;43082;43.568;22.256;2024-02-21T13:41:50;24.13;;;13.95;;
57225;SDS011;43082;43.568;22.256;2024-02-21T13:44:16;23.75;;;14.88;;
57225;SDS011;43082;43.568;22.256;2024-02-21T13:46:41;17.92;;;12.10;;
57225;SDS011;43082;43.568;22.256;2024-02-21T13:49:07;18.27;;;10.63;;
57225;SDS011;43082;43.568;22.256;2024-02-21T13:51:33;17.23;;;11.77;;
57225;SDS011;43082;43.568;22.256;2024-02-21T13:54:01;16.70;;;11.88;;
57225;SDS011;43082;43.568;22.256;2024-02-21T13:56:28;16.45;;;12.48;;
57225;SDS011;43082;43.568;22.256;2024-02-21T13:58:53;15.50;;;12.07;;
57225;SDS011;43082;43.568;22.256;2024-02-21T14:01:19;15.63;;;12.43;;
57225;SDS011;43082;43.568;22.256;2024-02-21T14:03:44;19.70;;;14.85;;
57225;SDS011;43082;43.568;22.256;2024-02-21T14:06:10;17.83;;;13.35;;
57225;SDS011;43082;43.568;22.256;2024-02-21T14:08:35;25.00;;;19.70;;
57225;SDS011;43082;43.568;22.256;2024-02-21T14:11:02;24.48;;;17.42;;
57225;SDS011;43082;43.568;22.256;2024-02-21T14:13:27;19.65;;;15.25;;